createdAt,value
2022-09-10T00:00:28.556Z,11.50
2022-09-10T00:02:56.022Z,11.56
2022-09-10T00:05:23.492Z,11.60
2022-09-10T00:07:50.918Z,11.61
2022-09-10T00:10:19.872Z,11.64
2022-09-10T00:12:48.099Z,11.69
2022-09-10T00:15:15.602Z,11.70
2022-09-10T00:17:43.014Z,11.72
2022-09-10T00:20:11.198Z,11.73
2022-09-10T00:22:38.588Z,11.69
2022-09-10T00:25:08.469Z,11.69
2022-09-10T00:27:37.782Z,11.68
2022-09-10T00:30:06.409Z,11.64
2022-09-10T00:32:34.728Z,11.58
2022-09-10T00:35:02.131Z,11.65
2022-09-10T00:37:30.796Z,11.64
2022-09-10T00:39:59.140Z,11.65
2022-09-10T00:42:26.568Z,11.69
2022-09-10T00:45:05.467Z,11.62
2022-09-10T00:47:36.470Z,11.61
2022-09-10T00:50:16.142Z,11.64
2022-09-10T00:52:44.609Z,11.66
2022-09-10T00:55:13.366Z,11.69
2022-09-10T00:57:42.070Z,11.73
2022-09-10T01:00:14.182Z,11.71
2022-09-10T01:02:41.820Z,11.76
2022-09-10T01:05:11.689Z,11.70
2022-09-10T01:07:39.320Z,11.75
2022-09-10T01:10:11.501Z,11.70
2022-09-10T01:13:21.595Z,11.70
2022-09-10T01:15:58.681Z,11.69
2022-09-10T01:18:38.969Z,11.69
2022-09-10T01:21:16.640Z,11.67
2022-09-10T01:24:14.493Z,11.61
2022-09-10T01:27:15.479Z,11.63
2022-09-10T01:29:49.876Z,11.68
2022-09-10T01:32:24.954Z,11.69
2022-09-10T01:35:00.698Z,11.70
2022-09-10T01:37:31.277Z,11.70
2022-09-10T01:40:01.046Z,11.53
2022-09-10T01:42:29.309Z,11.63
2022-09-10T01:44:58.987Z,11.66
2022-09-10T01:47:50.995Z,11.70
2022-09-10T01:50:25.583Z,11.63
2022-09-10T01:53:07.197Z,11.67
2022-09-10T01:55:44.203Z,11.65
2022-09-10T01:58:22.161Z,11.63
2022-09-10T02:00:59.975Z,11.61
2022-09-10T02:03:29.430Z,11.58
2022-09-10T02:05:58.799Z,11.62
2022-09-10T02:08:30.991Z,11.57
2022-09-10T02:11:00.675Z,11.54
2022-09-10T02:13:30.632Z,11.56
2022-09-10T02:16:00.309Z,11.55
2022-09-10T02:18:28.229Z,11.57
2022-09-10T02:20:58.353Z,11.55
2022-09-10T02:23:31.385Z,11.53
2022-09-10T02:25:59.384Z,11.54
2022-09-10T02:28:27.299Z,11.54
2022-09-10T02:30:54.976Z,11.56
2022-09-10T02:33:23.761Z,11.58
2022-09-10T02:35:51.949Z,11.61
2022-09-10T02:38:19.723Z,11.64
2022-09-10T02:40:48.912Z,11.64
2022-09-10T02:43:17.164Z,11.63
2022-09-10T02:45:45.272Z,11.66
2022-09-10T02:48:12.939Z,11.66
2022-09-10T02:50:41.811Z,11.71
2022-09-10T02:53:09.222Z,11.71
2022-09-10T02:55:36.628Z,11.73
2022-09-10T02:58:04.095Z,11.74
2022-09-10T03:00:31.807Z,11.69
2022-09-10T03:03:02.910Z,11.62
2022-09-10T03:05:30.675Z,11.60
2022-09-10T03:08:00.290Z,11.52
2022-09-10T03:10:28.224Z,11.48
2022-09-10T03:12:55.638Z,11.44
2022-09-10T03:15:23.086Z,11.36
2022-09-10T03:17:50.797Z,11.42
2022-09-10T03:20:18.832Z,11.34
2022-09-10T03:22:47.529Z,11.41
2022-09-10T03:25:17.139Z,11.41
2022-09-10T03:27:44.558Z,11.42
2022-09-10T03:30:12.741Z,11.39
2022-09-10T03:32:40.206Z,11.39
2022-09-10T03:35:08.403Z,11.36
2022-09-10T03:37:36.262Z,11.40
2022-09-10T03:40:05.481Z,11.35
2022-09-10T03:42:34.428Z,11.53
2022-09-10T03:45:01.860Z,11.54
2022-09-10T03:47:29.294Z,11.55
2022-09-10T03:49:56.702Z,11.62
2022-09-10T03:52:24.184Z,11.66
2022-09-10T03:54:51.631Z,11.63
2022-09-10T03:57:19.254Z,11.62
2022-09-10T03:59:48.006Z,11.57
2022-09-10T04:02:15.490Z,11.51
2022-09-10T04:04:42.939Z,11.45
2022-09-10T04:07:11.067Z,11.42
2022-09-10T04:09:38.544Z,11.36
2022-09-10T04:12:06.402Z,11.34
2022-09-10T04:14:34.311Z,11.33
2022-09-10T04:17:03.244Z,11.34
2022-09-10T04:19:30.842Z,11.35
2022-09-10T04:21:58.262Z,11.42
2022-09-10T04:24:25.743Z,11.45
2022-09-10T04:26:53.166Z,11.48
2022-09-10T04:29:20.802Z,11.49
2022-09-10T04:31:48.225Z,11.52
2022-09-10T04:34:17.448Z,11.61
2022-09-10T04:36:44.956Z,11.55
2022-09-10T04:39:14.368Z,11.63
2022-09-10T04:41:41.780Z,11.65
2022-09-10T04:44:09.291Z,11.65
2022-09-10T04:46:36.803Z,11.70
2022-09-10T04:49:04.339Z,11.73
2022-09-10T04:51:33.294Z,11.74
2022-09-10T04:54:01.651Z,11.74
2022-09-10T04:56:29.250Z,11.77
2022-09-10T04:58:56.918Z,11.72
2022-09-10T05:01:24.945Z,11.78
2022-09-10T05:03:52.422Z,11.80
2022-09-10T05:06:20.196Z,11.85
2022-09-10T05:08:48.955Z,11.85
2022-09-10T05:11:19.511Z,11.84
2022-09-10T05:13:47.230Z,11.89
2022-09-10T05:16:15.067Z,11.89
2022-09-10T05:18:42.498Z,11.90
2022-09-10T05:21:10.222Z,11.84
2022-09-10T05:23:39.384Z,11.86
2022-09-10T05:26:08.368Z,11.91
2022-09-10T05:28:35.758Z,11.89
2022-09-10T05:31:03.287Z,11.88
2022-09-10T05:33:30.892Z,11.87
2022-09-10T05:35:58.278Z,11.91
2022-09-10T05:38:26.445Z,11.90
2022-09-10T05:40:53.898Z,11.93
2022-09-10T05:43:22.654Z,11.97
2022-09-10T05:45:51.759Z,11.96
2022-09-10T05:48:19.183Z,12.01
2022-09-10T05:50:46.675Z,12.06
2022-09-10T05:53:14.583Z,12.08
2022-09-10T05:55:43.780Z,12.04
2022-09-10T05:58:13.444Z,12.05
2022-09-10T06:00:43.878Z,12.09
2022-09-10T06:03:11.768Z,12.07
2022-09-10T06:05:39.271Z,12.15
2022-09-10T06:08:08.748Z,12.17
2022-09-10T06:10:36.797Z,12.22
2022-09-10T06:13:04.232Z,12.32
2022-09-10T06:15:34.721Z,12.47
2022-09-10T06:18:03.825Z,12.52
2022-09-10T06:20:31.271Z,12.48
2022-09-10T06:22:58.881Z,12.53
2022-09-10T06:25:26.307Z,12.54
2022-09-10T06:27:53.723Z,12.51
2022-09-10T06:30:21.591Z,12.53
2022-09-10T06:32:49.039Z,12.54
2022-09-10T06:35:18.000Z,12.53
2022-09-10T06:37:45.410Z,12.57
2022-09-10T06:40:13.183Z,12.58
2022-09-10T06:42:41.026Z,12.58
2022-09-10T06:45:09.318Z,12.61
2022-09-10T06:50:26.444Z,12.62
2022-09-10T06:52:54.066Z,12.69
2022-09-10T06:55:21.491Z,12.65
2022-09-10T06:57:48.916Z,12.73
2022-09-10T07:00:17.385Z,12.82
2022-09-10T07:02:44.807Z,12.88
2022-09-10T07:05:12.245Z,12.87
2022-09-10T07:07:41.015Z,13.03
2022-09-10T07:10:09.342Z,13.11
2022-09-10T07:12:36.782Z,13.11
2022-09-10T07:15:04.527Z,13.25
2022-09-10T07:17:35.273Z,13.27
2022-09-10T07:20:03.240Z,13.27
2022-09-10T07:22:31.006Z,13.34
2022-09-10T07:25:00.091Z,13.39
2022-09-10T07:27:27.544Z,13.33
2022-09-10T07:29:54.974Z,13.46
2022-09-10T07:32:22.462Z,13.51
2022-09-10T07:34:49.946Z,13.58
2022-09-10T07:37:17.395Z,13.61
2022-09-10T07:39:45.874Z,13.74
2022-09-10T07:42:14.696Z,13.69
2022-09-10T07:44:42.143Z,13.86
2022-09-10T07:47:09.616Z,13.75
2022-09-10T07:49:37.045Z,13.72
2022-09-10T07:52:04.870Z,13.69
2022-09-10T07:54:32.322Z,13.76
2022-09-10T07:56:59.740Z,13.69
2022-09-10T07:59:28.507Z,13.74
2022-09-10T08:01:55.969Z,13.81
2022-09-10T08:04:24.320Z,13.83
2022-09-10T08:06:52.020Z,13.84
2022-09-10T08:09:20.192Z,13.77
2022-09-10T08:11:47.587Z,13.80
2022-09-10T08:14:15.075Z,13.79
2022-09-10T08:16:44.635Z,13.75
2022-09-10T08:19:13.670Z,13.77
2022-09-10T08:21:41.125Z,13.74
2022-09-10T08:24:08.557Z,13.86
2022-09-10T08:26:35.966Z,13.94
2022-09-10T08:29:03.988Z,13.92
2022-09-10T08:31:31.393Z,13.91
2022-09-10T08:34:00.126Z,13.92
2022-09-10T08:36:27.651Z,13.92
2022-09-10T08:39:00.710Z,13.85
2022-09-10T08:41:42.129Z,13.82
2022-09-10T08:44:16.081Z,13.69
2022-09-10T08:46:48.280Z,13.60
2022-09-10T08:49:26.816Z,13.59
2022-09-10T08:51:57.528Z,13.50
2022-09-10T08:54:28.845Z,13.57
2022-09-10T08:57:00.625Z,13.62
2022-09-10T08:59:34.302Z,13.67
2022-09-10T09:02:07.184Z,13.77
2022-09-10T09:04:44.839Z,13.77
2022-09-10T09:07:14.685Z,13.81
2022-09-10T09:09:42.965Z,13.81
2022-09-10T09:12:19.519Z,13.91
2022-09-10T09:14:56.645Z,13.99
2022-09-10T09:17:37.567Z,14.03
2022-09-10T09:20:15.733Z,14.08
2022-09-10T09:22:51.801Z,14.04
2022-09-10T09:25:24.478Z,14.16
2022-09-10T09:27:56.378Z,14.28
2022-09-10T09:30:26.972Z,14.19
2022-09-10T09:32:58.324Z,14.23
2022-09-10T09:35:32.197Z,14.34
2022-09-10T09:38:13.673Z,14.36
2022-09-10T09:40:46.827Z,14.33
2022-09-10T09:43:23.843Z,14.30
2022-09-10T09:45:53.297Z,14.10
2022-09-10T09:48:24.304Z,14.08
2022-09-10T09:50:56.582Z,14.01
2022-09-10T09:53:26.091Z,13.98
2022-09-10T09:55:55.945Z,14.07
2022-09-10T09:58:37.329Z,14.19
2022-09-10T10:01:14.362Z,14.28
2022-09-10T10:03:50.134Z,14.30
2022-09-10T10:06:21.710Z,14.31
2022-09-10T10:08:57.013Z,14.33
2022-09-10T10:11:41.505Z,14.29
2022-09-10T10:14:21.249Z,14.26
2022-09-10T10:16:49.398Z,14.22
2022-09-10T10:19:29.714Z,14.20
2022-09-10T10:21:59.972Z,14.15
2022-09-10T10:24:32.530Z,14.22
2022-09-10T10:27:00.296Z,14.25
2022-09-10T10:29:28.529Z,14.38
2022-09-10T10:31:57.362Z,14.54
2022-09-10T10:34:47.369Z,14.54
2022-09-10T10:37:23.546Z,14.75
2022-09-10T10:40:09.301Z,14.78
2022-09-10T10:42:41.683Z,14.98
2022-09-10T10:45:28.355Z,15.31
2022-09-10T10:48:04.011Z,15.53
2022-09-10T10:50:38.116Z,15.53
2022-09-10T10:53:19.370Z,15.88
2022-09-10T10:55:53.308Z,16.17
2022-09-10T10:58:40.002Z,16.06
2022-09-10T11:01:14.738Z,16.20
2022-09-10T11:03:48.731Z,16.25
2022-09-10T11:06:20.929Z,16.40
2022-09-10T11:08:55.046Z,16.23
2022-09-10T11:11:29.043Z,15.96
2022-09-10T11:14:02.259Z,15.90
2022-09-10T11:16:40.308Z,15.78
2022-09-10T11:19:17.029Z,15.75
2022-09-10T11:21:52.161Z,15.31
2022-09-10T11:24:24.246Z,14.88
2022-09-10T11:26:56.948Z,14.61
2022-09-10T11:29:34.813Z,14.41
2022-09-10T11:32:07.975Z,14.47
2022-09-10T11:34:43.351Z,14.55
2022-09-10T11:37:17.732Z,14.67
2022-09-10T11:39:50.059Z,14.67
2022-09-10T11:42:23.158Z,14.64
2022-09-10T11:44:59.096Z,14.68
2022-09-10T11:47:33.094Z,14.78
2022-09-10T11:50:04.323Z,14.85
2022-09-10T11:52:33.578Z,14.81
2022-09-10T11:55:03.711Z,14.79
2022-09-10T11:57:40.790Z,14.77
2022-09-10T12:00:15.853Z,14.86
2022-09-10T12:03:20.153Z,14.82
2022-09-10T12:05:57.124Z,14.86
2022-09-10T12:08:38.251Z,14.96
2022-09-10T12:11:16.147Z,14.96
2022-09-10T12:13:45.512Z,14.95
2022-09-10T12:16:21.890Z,14.77
2022-09-10T12:18:52.193Z,14.76
2022-09-10T12:21:29.295Z,14.81
2022-09-10T12:23:58.119Z,14.91
2022-09-10T12:26:27.156Z,15.13
2022-09-10T12:29:01.480Z,15.24
2022-09-10T12:31:28.970Z,15.35
2022-09-10T12:34:17.017Z,15.57
2022-09-10T12:37:24.449Z,15.94
2022-09-10T12:40:25.541Z,16.19
2022-09-10T12:42:58.718Z,16.27
2022-09-10T12:46:01.602Z,16.23
2022-09-10T12:48:29.706Z,16.40
2022-09-10T12:51:00.421Z,16.56
2022-09-10T12:54:07.435Z,16.80
2022-09-10T12:56:50.775Z,16.94
2022-09-10T12:59:55.095Z,17.01
2022-09-10T13:02:30.215Z,17.14
2022-09-10T13:05:01.033Z,17.16
2022-09-10T13:07:35.655Z,16.83
2022-09-10T13:10:08.085Z,16.77
2022-09-10T13:12:37.504Z,16.61
2022-09-10T13:15:07.861Z,16.61
2022-09-10T13:17:41.100Z,16.45
2022-09-10T13:20:29.113Z,16.23
2022-09-10T13:22:58.792Z,15.78
2022-09-10T13:25:34.771Z,15.55
2022-09-10T13:28:02.680Z,15.37
2022-09-10T13:30:31.982Z,15.49
2022-09-10T13:33:01.940Z,15.60
2022-09-10T13:35:59.114Z,15.65
2022-09-10T13:38:47.660Z,15.77
2022-09-10T13:41:59.896Z,15.82
2022-09-10T13:44:55.856Z,16.00
2022-09-10T13:47:29.802Z,16.33
2022-09-10T13:50:01.932Z,16.02
2022-09-10T13:52:34.617Z,16.13
2022-09-10T13:55:04.220Z,16.34
2022-09-10T13:57:35.449Z,16.87
2022-09-10T14:00:08.093Z,16.88
2022-09-10T14:02:44.732Z,16.87
2022-09-10T14:05:27.187Z,16.84
2022-09-10T14:07:57.035Z,16.56
2022-09-10T14:10:24.998Z,16.36
2022-09-10T14:12:54.189Z,16.17
2022-09-10T14:15:25.687Z,16.23
2022-09-10T14:17:59.196Z,16.17
2022-09-10T14:20:29.559Z,16.31
2022-09-10T14:23:00.721Z,16.26
2022-09-10T14:25:31.385Z,16.23
2022-09-10T14:28:25.807Z,16.05
2022-09-10T14:31:18.836Z,16.06
2022-09-10T14:33:47.720Z,15.98
2022-09-10T14:36:17.806Z,15.90
2022-09-10T14:38:54.301Z,15.85
2022-09-10T14:41:24.699Z,15.83
2022-09-10T14:44:16.790Z,15.74
2022-09-10T14:46:50.072Z,15.75
2022-09-10T14:49:20.551Z,15.85
2022-09-10T14:51:48.033Z,15.86
2022-09-10T14:54:15.499Z,15.69
2022-09-10T14:56:45.000Z,15.48
2022-09-10T14:59:16.731Z,15.37
2022-09-10T15:01:46.443Z,15.20
2022-09-10T15:04:15.799Z,15.14
2022-09-10T15:06:45.017Z,15.05
2022-09-10T15:09:13.630Z,15.00
2022-09-10T15:11:52.038Z,14.92
2022-09-10T15:14:19.999Z,14.97
2022-09-10T15:16:47.936Z,14.89
2022-09-10T15:19:15.318Z,14.80
2022-09-10T15:21:44.119Z,14.72
2022-09-10T15:24:14.903Z,14.69
2022-09-10T15:26:42.377Z,14.70
2022-09-10T15:29:10.040Z,14.64
2022-09-10T15:31:38.258Z,14.62
2022-09-10T15:34:07.980Z,14.60
2022-09-10T15:36:36.967Z,14.54
2022-09-10T15:39:06.839Z,14.53
2022-09-10T15:41:35.029Z,14.53
2022-09-10T15:44:03.895Z,14.55
2022-09-10T15:46:31.327Z,14.55
2022-09-10T15:48:59.345Z,14.49
2022-09-10T15:51:27.066Z,14.43
2022-09-10T15:53:55.143Z,14.47
2022-09-10T15:56:25.916Z,14.55
2022-09-10T15:58:56.551Z,14.46
2022-09-10T16:01:25.395Z,14.40
2022-09-10T16:03:55.230Z,14.40
2022-09-10T16:06:25.119Z,14.40
2022-09-10T16:08:56.505Z,14.29
2022-09-10T16:11:26.183Z,14.23
2022-09-10T16:13:53.818Z,14.20
2022-09-10T16:16:23.709Z,14.23
2022-09-10T16:18:51.674Z,14.26
2022-09-10T16:21:22.226Z,14.23
2022-09-10T16:23:52.196Z,14.24
2022-09-10T16:26:21.885Z,14.04
2022-09-10T16:28:51.399Z,14.13
2022-09-10T16:31:20.939Z,14.20
2022-09-10T16:33:52.806Z,14.21
2022-09-10T16:36:22.200Z,14.21
2022-09-10T16:38:53.723Z,14.23
2022-09-10T16:41:22.160Z,14.20
2022-09-10T16:43:51.503Z,14.26
2022-09-10T16:46:19.332Z,14.27
2022-09-10T16:48:47.029Z,14.30
2022-09-10T16:51:16.524Z,14.27
2022-09-10T16:53:45.899Z,14.28
2022-09-10T16:56:15.745Z,14.30
2022-09-10T16:58:48.123Z,14.32
2022-09-10T17:01:17.334Z,14.32
2022-09-10T17:03:46.184Z,14.24
2022-09-10T17:06:15.540Z,14.29
2022-09-10T17:08:45.073Z,14.25
2022-09-10T17:11:12.912Z,14.29
2022-09-10T17:13:40.326Z,14.30
2022-09-10T17:16:23.212Z,14.28
2022-09-10T17:18:56.110Z,14.21
2022-09-10T17:21:23.558Z,14.18
2022-09-10T17:23:50.963Z,14.12
2022-09-10T17:26:18.744Z,14.08
2022-09-10T17:28:53.211Z,14.03
2022-09-10T17:31:22.164Z,14.04
2022-09-10T17:33:49.912Z,14.09
2022-09-10T17:36:17.585Z,14.07
2022-09-10T17:38:45.854Z,13.99
2022-09-10T17:41:14.442Z,14.01
2022-09-10T17:43:43.777Z,13.97
2022-09-10T17:46:14.744Z,13.93
2022-09-10T17:48:45.626Z,13.86
2022-09-10T17:51:14.512Z,13.86
2022-09-10T17:53:43.296Z,13.81
2022-09-10T17:56:12.211Z,13.89
2022-09-10T17:58:40.020Z,13.88
2022-09-10T18:01:10.078Z,13.85
2022-09-10T18:03:37.896Z,13.83
2022-09-10T18:06:08.703Z,13.82
2022-09-10T18:08:36.811Z,13.84
2022-09-10T18:11:05.692Z,13.85
2022-09-10T18:13:34.011Z,13.81
2022-09-10T18:16:06.307Z,13.84
2022-09-10T18:18:34.834Z,13.86
2022-09-10T18:21:13.735Z,13.86
2022-09-10T18:23:43.538Z,13.86
2022-09-10T18:26:13.016Z,13.87
2022-09-10T18:28:40.454Z,13.88
2022-09-10T18:31:08.014Z,13.84
2022-09-10T18:33:38.237Z,13.92
2022-09-10T18:36:13.638Z,13.89
2022-09-10T18:38:42.059Z,13.88
2022-09-10T18:41:21.784Z,13.90
2022-09-10T18:43:50.793Z,13.88
2022-09-10T18:46:19.887Z,13.93
2022-09-10T18:48:48.357Z,13.94
2022-09-10T18:51:20.343Z,13.94
2022-09-10T18:53:49.539Z,13.94
2022-09-10T18:56:19.256Z,13.97
2022-09-10T18:58:49.905Z,13.93
2022-09-10T19:01:18.853Z,13.97
2022-09-10T19:03:48.291Z,13.97
2022-09-10T19:06:19.055Z,14.01
2022-09-10T19:08:52.497Z,14.00
2022-09-10T19:11:21.217Z,14.00
2022-09-10T19:13:49.894Z,14.00
2022-09-10T19:16:18.334Z,13.94
2022-09-10T19:18:50.615Z,13.96
2022-09-10T19:21:20.096Z,13.82
2022-09-10T19:23:49.102Z,13.98
2022-09-10T19:26:17.671Z,13.97
2022-09-10T19:28:45.636Z,14.01
2022-09-10T19:31:15.065Z,14.01
2022-09-10T19:33:42.803Z,14.02
2022-09-10T19:36:12.373Z,13.87
2022-09-10T19:38:42.206Z,14.02
2022-09-10T19:41:12.077Z,13.94
2022-09-10T19:43:40.372Z,14.00
2022-09-10T19:46:11.062Z,14.02
2022-09-10T19:48:38.749Z,14.03
2022-09-10T19:51:07.774Z,14.01
2022-09-10T19:53:35.340Z,14.01
2022-09-10T19:56:08.997Z,14.00
2022-09-10T19:58:37.427Z,13.96
2022-09-10T20:01:09.328Z,13.93
2022-09-10T20:03:37.592Z,13.93
2022-09-10T20:06:05.544Z,13.87
2022-09-10T20:08:34.662Z,13.87
2022-09-10T20:11:05.838Z,13.90
2022-09-10T20:13:34.992Z,13.86
2022-09-10T20:16:03.188Z,13.87
2022-09-10T20:18:31.943Z,13.88
2022-09-10T20:21:11.586Z,13.82
2022-09-10T20:23:39.382Z,13.64
2022-09-10T20:26:11.976Z,13.80
2022-09-10T20:28:41.129Z,13.77
2022-09-10T20:31:10.675Z,13.78
2022-09-10T20:33:39.090Z,13.72
2022-09-10T20:36:11.439Z,13.74
2022-09-10T20:38:38.981Z,13.66
2022-09-10T20:41:07.428Z,13.77
2022-09-10T20:43:35.396Z,13.76
2022-09-10T20:46:05.048Z,13.72
2022-09-10T20:48:33.082Z,13.73
2022-09-10T20:51:01.541Z,13.66
2022-09-10T20:53:28.985Z,13.69
2022-09-10T20:56:03.723Z,13.71
2022-09-10T20:58:32.343Z,13.67
2022-09-10T21:01:07.858Z,13.61
2022-09-10T21:03:35.285Z,13.64
2022-09-10T21:06:03.168Z,13.61
2022-09-10T21:08:31.467Z,13.71
2022-09-10T21:11:04.818Z,13.69
2022-09-10T21:13:34.106Z,13.65
2022-09-10T21:16:09.166Z,13.62
2022-09-10T21:18:36.716Z,13.64
2022-09-10T21:21:08.094Z,13.66
2022-09-10T21:23:36.549Z,13.64
2022-09-10T21:26:05.024Z,13.61
2022-09-10T21:28:32.461Z,13.63
2022-09-10T21:31:03.022Z,13.49
2022-09-10T21:33:31.852Z,13.55
2022-09-10T21:36:03.074Z,13.56
2022-09-10T21:38:30.984Z,13.60
2022-09-10T21:40:59.285Z,13.50
2022-09-10T21:43:27.445Z,13.58
2022-09-10T21:45:55.362Z,13.53
2022-09-10T21:48:23.218Z,13.58
2022-09-10T21:51:00.259Z,13.57
2022-09-10T21:53:28.219Z,13.52
2022-09-10T21:55:55.987Z,13.60
2022-09-10T21:58:24.138Z,13.60
2022-09-10T22:00:51.631Z,13.54
2022-09-10T22:03:19.907Z,13.56
2022-09-10T22:05:47.535Z,13.57
2022-09-10T22:08:16.330Z,13.51
2022-09-10T22:10:43.848Z,13.55
2022-09-10T22:13:11.687Z,13.54
2022-09-10T22:15:40.302Z,13.53
2022-09-10T22:18:08.274Z,13.45
2022-09-10T22:20:35.930Z,13.47
2022-09-10T22:23:04.086Z,13.43
2022-09-10T22:25:33.251Z,13.38
2022-09-10T22:28:00.648Z,13.32
2022-09-10T22:30:28.881Z,13.31
2022-09-10T22:32:57.168Z,13.22
2022-09-10T22:35:25.548Z,13.16
2022-09-10T22:37:55.892Z,13.20
2022-09-10T22:40:23.942Z,13.21
2022-09-10T22:42:53.724Z,13.14
2022-09-10T22:45:21.126Z,13.14
2022-09-10T22:47:48.929Z,13.13
2022-09-10T22:50:16.515Z,13.17
2022-09-10T22:52:45.679Z,13.17
2022-09-10T22:55:14.170Z,13.21
2022-09-10T22:57:41.826Z,13.21
2022-09-10T23:00:13.283Z,13.19
2022-09-10T23:02:40.785Z,13.15
2022-09-10T23:05:08.800Z,13.21
2022-09-10T23:07:36.332Z,13.23
2022-09-10T23:10:04.085Z,13.21
2022-09-10T23:12:31.533Z,13.17
2022-09-10T23:14:59.000Z,13.19
2022-09-10T23:17:27.790Z,13.15
2022-09-10T23:19:55.444Z,13.17
2022-09-10T23:22:22.957Z,13.19
2022-09-10T23:24:50.378Z,13.16
2022-09-10T23:27:17.790Z,13.16
2022-09-10T23:29:45.221Z,13.11
2022-09-10T23:32:12.656Z,13.07
2022-09-10T23:34:41.522Z,13.09
2022-09-10T23:37:09.908Z,13.09
2022-09-10T23:39:37.722Z,13.02
2022-09-10T23:42:05.916Z,12.88
2022-09-10T23:44:33.920Z,12.79
2022-09-10T23:47:01.493Z,12.81
2022-09-10T23:49:29.034Z,12.84
2022-09-10T23:51:57.803Z,12.86
2022-09-10T23:54:25.385Z,12.88
2022-09-10T23:56:52.840Z,12.93
2022-09-10T23:59:20.294Z,12.89
